createdAt,value
2018-01-29T00:01:41.119Z,101490.92
2018-01-29T00:04:13.624Z,101487.61
2018-01-29T00:06:46.125Z,101491.44
2018-01-29T00:09:18.655Z,101492.83
2018-01-29T00:11:51.151Z,101490.95
2018-01-29T00:14:23.700Z,101499.66
2018-01-29T00:16:56.206Z,101497.08
2018-01-29T00:19:28.731Z,101489.31
2018-01-29T00:22:01.257Z,101493.40
2018-01-29T00:24:33.794Z,101490.20
2018-01-29T00:27:06.305Z,101488.64
2018-01-29T00:29:42.653Z,101495.72
2018-01-29T00:32:15.162Z,101489.25
2018-01-29T00:34:47.704Z,101473.59
2018-01-29T00:37:20.243Z,101486.27
2018-01-29T00:39:52.765Z,101480.86
2018-01-29T00:42:25.263Z,101472.92
2018-01-29T00:44:57.808Z,101479.78
2018-01-29T00:47:30.329Z,101485.51
2018-01-29T00:50:02.863Z,101476.07
2018-01-29T00:52:35.358Z,101482.39
2018-01-29T00:55:07.881Z,101475.55
2018-01-29T00:57:40.389Z,101477.28
2018-01-29T01:00:12.937Z,101474.66
2018-01-29T01:02:45.501Z,101474.44
2018-01-29T01:05:18.041Z,101468.26
2018-01-29T01:07:51.643Z,101462.30
2018-01-29T01:10:24.178Z,101465.60
2018-01-29T01:12:56.757Z,101471.37
2018-01-29T01:15:29.293Z,101460.47
2018-01-29T01:18:01.800Z,101471.55
2018-01-29T01:20:34.322Z,101467.30
2018-01-29T01:23:06.821Z,101472.03
2018-01-29T01:25:39.350Z,101475.14
2018-01-29T01:28:11.861Z,101469.84
2018-01-29T01:30:44.390Z,101470.55
2018-01-29T01:33:16.890Z,101472.86
2018-01-29T01:35:49.418Z,101469.78
2018-01-29T01:38:21.931Z,101460.74
2018-01-29T01:40:56.689Z,101461.02
2018-01-29T01:43:29.210Z,101454.66
2018-01-29T01:46:01.741Z,101457.62
2018-01-29T01:48:34.250Z,101453.14
2018-01-29T01:51:06.759Z,101439.27
2018-01-29T01:53:39.298Z,101441.51
2018-01-29T01:56:11.816Z,101434.16
2018-01-29T01:58:44.328Z,101439.47
2018-01-29T02:01:16.861Z,101439.92
2018-01-29T02:03:49.387Z,101435.77
2018-01-29T02:06:21.960Z,101432.11
2018-01-29T02:08:54.590Z,101431.33
2018-01-29T02:11:27.105Z,101417.61
2018-01-29T02:13:59.703Z,101420.56
2018-01-29T02:16:32.332Z,101413.50
2018-01-29T02:19:04.958Z,101412.11
2018-01-29T02:21:37.482Z,101408.72
2018-01-29T02:24:10.012Z,101411.47
2018-01-29T02:26:42.515Z,101399.87
2018-01-29T02:29:15.078Z,101407.44
2018-01-29T02:31:47.570Z,101402.36
2018-01-29T02:34:20.087Z,101397.03
2018-01-29T02:36:52.635Z,101397.01
2018-01-29T02:39:25.166Z,101398.36
2018-01-29T02:41:57.754Z,101403.72
2018-01-29T02:44:30.325Z,101396.66
2018-01-29T02:47:02.844Z,101396.62
2018-01-29T02:49:35.369Z,101379.06
2018-01-29T02:52:07.896Z,101376.06
2018-01-29T02:54:40.485Z,101368.84
2018-01-29T02:57:12.996Z,101371.12
2018-01-29T02:59:45.526Z,101372.73
2018-01-29T03:02:18.039Z,101365.23
2018-01-29T03:04:50.560Z,101354.60
2018-01-29T03:07:23.072Z,101346.35
2018-01-29T03:09:55.629Z,101355.45
2018-01-29T03:12:28.160Z,101348.14
2018-01-29T03:15:00.687Z,101343.06
2018-01-29T03:17:33.199Z,101343.20
2018-01-29T03:20:05.719Z,101333.22
2018-01-29T03:22:38.217Z,101330.80
2018-01-29T03:25:11.782Z,101325.13
2018-01-29T03:27:44.294Z,101331.13
2018-01-29T03:30:16.828Z,101331.75
2018-01-29T03:32:49.343Z,101329.50
2018-01-29T03:35:21.867Z,101338.08
2018-01-29T03:37:54.423Z,101325.77
2018-01-29T03:40:26.992Z,101317.95
2018-01-29T03:42:59.512Z,101320.23
2018-01-29T03:45:32.024Z,101301.14
2018-01-29T03:48:04.535Z,101311.60
2018-01-29T03:50:37.057Z,101309.20
2018-01-29T03:53:09.576Z,101295.84
2018-01-29T03:55:42.112Z,101303.09
2018-01-29T03:58:14.627Z,101304.87
2018-01-29T04:00:47.179Z,101299.79
2018-01-29T04:03:19.687Z,101298.51
2018-01-29T04:05:52.220Z,101295.80
2018-01-29T04:08:24.791Z,101294.73
2018-01-29T04:10:57.336Z,101284.87
2018-01-29T04:13:29.851Z,101287.45
2018-01-29T04:16:02.402Z,101277.87
2018-01-29T04:18:34.905Z,101270.42
2018-01-29T04:21:07.432Z,101272.25
2018-01-29T04:23:39.936Z,101267.34
2018-01-29T04:26:12.448Z,101269.35
2018-01-29T04:28:44.945Z,101271.60
2018-01-29T04:31:17.476Z,101260.58
2018-01-29T04:33:49.982Z,101261.88
2018-01-29T04:36:22.516Z,101245.56
2018-01-29T04:38:55.033Z,101245.46
2018-01-29T04:41:27.582Z,101232.96
2018-01-29T04:44:00.094Z,101248.96
2018-01-29T04:46:32.621Z,101246.23
2018-01-29T04:49:05.141Z,101244.89
2018-01-29T04:51:37.670Z,101248.13
2018-01-29T04:54:10.172Z,101237.78
2018-01-29T04:56:42.698Z,101248.30
2018-01-29T04:59:15.211Z,101255.22
2018-01-29T05:01:47.732Z,101233.98
2018-01-29T05:04:20.227Z,101228.94
2018-01-29T05:06:52.738Z,101225.89
2018-01-29T05:09:25.253Z,101219.04
2018-01-29T05:11:57.791Z,101228.48
2018-01-29T05:14:30.315Z,101229.92
2018-01-29T05:17:02.853Z,101230.81
2018-01-29T05:19:35.376Z,101236.09
2018-01-29T05:22:07.906Z,101226.78
2018-01-29T05:24:40.407Z,101242.92
2018-01-29T05:27:12.955Z,101237.48
2018-01-29T05:29:45.475Z,101237.04
2018-01-29T05:32:17.985Z,101233.34
2018-01-29T05:34:50.479Z,101241.36
2018-01-29T05:37:40.716Z,101251.06
2018-01-29T05:40:13.228Z,101239.66
2018-01-29T05:42:45.726Z,101235.94
2018-01-29T05:45:18.261Z,101241.08
2018-01-29T05:47:50.763Z,101236.67
2018-01-29T05:50:23.290Z,101241.91
2018-01-29T05:52:55.804Z,101244.80
2018-01-29T05:55:28.324Z,101244.34
2018-01-29T05:58:01.538Z,101242.31
2018-01-29T06:00:34.060Z,101237.44
2018-01-29T06:03:06.556Z,101235.35
2018-01-29T06:05:39.077Z,101230.97
2018-01-29T06:08:11.681Z,101239.82
2018-01-29T06:10:44.211Z,101234.00
2018-01-29T06:13:16.707Z,101227.69
2018-01-29T06:15:49.231Z,101221.53
2018-01-29T06:18:21.731Z,101226.70
2018-01-29T06:20:54.272Z,101204.80
2018-01-29T06:23:26.790Z,101222.84
2018-01-29T06:25:59.306Z,101215.41
2018-01-29T06:28:31.788Z,101219.48
2018-01-29T06:31:04.310Z,101213.88
2018-01-29T06:33:36.843Z,101206.84
2018-01-29T06:36:09.378Z,101206.77
2018-01-29T06:38:41.867Z,101204.69
2018-01-29T06:41:15.396Z,101205.66
2018-01-29T06:43:48.015Z,101211.20
2018-01-29T06:46:20.529Z,101192.02
2018-01-29T06:48:53.100Z,101200.59
2018-01-29T06:51:25.614Z,101197.92
2018-01-29T06:53:58.123Z,101197.03
2018-01-29T06:56:30.712Z,101174.81
2018-01-29T06:59:03.227Z,101183.27
2018-01-29T07:01:35.760Z,101177.94
2018-01-29T07:04:08.267Z,101195.72
2018-01-29T07:06:40.793Z,101195.66
2018-01-29T07:09:13.332Z,101203.59
2018-01-29T07:11:45.861Z,101189.52
2018-01-29T07:14:18.355Z,101189.85
2018-01-29T07:16:50.877Z,101187.47
2018-01-29T07:19:23.385Z,101184.34
2018-01-29T07:21:55.920Z,101185.87
2018-01-29T07:24:28.436Z,101180.25
2018-01-29T07:27:00.956Z,101187.17
2018-01-29T07:29:33.465Z,101183.22
2018-01-29T07:32:05.977Z,101190.69
2018-01-29T07:34:38.477Z,101182.98
2018-01-29T07:37:11.003Z,101183.09
2018-01-29T07:39:44.111Z,101184.03
2018-01-29T07:42:16.648Z,101179.12
2018-01-29T07:44:49.152Z,101172.77
2018-01-29T07:47:21.680Z,101174.66
2018-01-29T07:49:54.182Z,101171.05
2018-01-29T07:52:26.746Z,101165.59
2018-01-29T07:54:59.250Z,101164.01
2018-01-29T07:57:31.785Z,101155.26
2018-01-29T08:00:04.280Z,101154.64
2018-01-29T08:02:36.805Z,101160.90
2018-01-29T08:05:09.309Z,101148.69
2018-01-29T08:07:41.852Z,101151.43
2018-01-29T08:10:14.388Z,101153.23
2018-01-29T08:12:46.941Z,101132.92
2018-01-29T08:15:20.266Z,101136.93
2018-01-29T08:17:52.797Z,101133.75
2018-01-29T08:20:25.424Z,101134.99
2018-01-29T08:22:57.980Z,101135.41
2018-01-29T08:25:30.512Z,101124.54
2018-01-29T08:28:03.031Z,101126.88
2018-01-29T08:30:35.543Z,101118.77
2018-01-29T08:33:08.260Z,101118.29
2018-01-29T08:35:40.815Z,101122.55
2018-01-29T08:38:13.325Z,101134.54
2018-01-29T08:40:45.864Z,101126.66
2018-01-29T08:43:18.412Z,101132.22
2018-01-29T08:45:50.931Z,101116.25
2018-01-29T08:48:23.476Z,101129.92
2018-01-29T08:50:56.001Z,101130.12
2018-01-29T08:53:28.530Z,101117.06
2018-01-29T08:56:01.032Z,101107.66
2018-01-29T08:58:33.550Z,101112.39
2018-01-29T09:01:06.105Z,101124.66
2018-01-29T09:03:38.608Z,101106.39
2018-01-29T09:06:11.131Z,101112.77
2018-01-29T09:08:43.660Z,101112.16
2018-01-29T09:11:16.348Z,101119.22
2018-01-29T09:13:48.858Z,101109.39
2018-01-29T09:16:21.376Z,101121.13
2018-01-29T09:18:53.901Z,101117.80
2018-01-29T09:21:27.482Z,101118.94
2018-01-29T09:24:00.080Z,101115.02
2018-01-29T09:26:32.642Z,101113.28
2018-01-29T09:29:05.161Z,101110.67
2018-01-29T09:31:37.692Z,101099.64
2018-01-29T09:34:10.227Z,101104.20
2018-01-29T09:36:42.760Z,101087.03
2018-01-29T09:39:15.260Z,101086.43
2018-01-29T09:41:47.860Z,101084.73
2018-01-29T09:44:20.407Z,101080.25
2018-01-29T09:46:52.927Z,101076.41
2018-01-29T09:49:25.448Z,101083.33
2018-01-29T09:51:58.055Z,101068.47
2018-01-29T09:54:30.580Z,101083.90
2018-01-29T09:57:03.113Z,101092.89
2018-01-29T09:59:35.625Z,101073.98
2018-01-29T10:02:08.161Z,101087.53
2018-01-29T10:04:40.675Z,101080.75
2018-01-29T10:07:13.205Z,101092.00
2018-01-29T10:09:45.781Z,101096.30
2018-01-29T10:12:18.301Z,101078.00
2018-01-29T10:14:50.830Z,101061.30
2018-01-29T10:17:23.592Z,101048.66
2018-01-29T10:19:56.124Z,101054.42
2018-01-29T10:22:28.648Z,101035.45
2018-01-29T10:25:01.157Z,101039.83
2018-01-29T10:27:33.679Z,101023.05
2018-01-29T10:30:06.168Z,101025.00
2018-01-29T10:32:38.695Z,101023.79
2018-01-29T10:35:11.217Z,101014.64
2018-01-29T10:37:43.788Z,101010.78
2018-01-29T10:40:16.279Z,101015.77
2018-01-29T10:42:48.795Z,101004.47
2018-01-29T10:45:21.304Z,101005.70
2018-01-29T10:47:53.820Z,101009.03
2018-01-29T10:50:26.319Z,101012.05
2018-01-29T10:52:58.844Z,100993.77
2018-01-29T10:55:31.471Z,101001.31
2018-01-29T10:58:03.983Z,101001.20
2018-01-29T11:00:42.085Z,101005.06
2018-01-29T11:03:14.604Z,101006.34
2018-01-29T11:05:47.223Z,100988.38
2018-01-29T11:08:19.772Z,100992.97
2018-01-29T11:10:52.280Z,100993.31
2018-01-29T11:13:24.826Z,100987.05
2018-01-29T11:15:57.363Z,100974.74
2018-01-29T11:18:29.887Z,100979.70
2018-01-29T11:21:02.381Z,100969.82
2018-01-29T11:23:34.904Z,100965.22
2018-01-29T11:26:07.406Z,100959.49
2018-01-29T11:28:39.925Z,100964.06
2018-01-29T11:31:12.435Z,100963.24
2018-01-29T11:33:44.950Z,100958.96
2018-01-29T11:36:17.456Z,100975.70
2018-01-29T11:38:50.036Z,100960.33
2018-01-29T11:41:22.521Z,100958.66
2018-01-29T11:43:55.081Z,100957.17
2018-01-29T11:46:27.581Z,100945.17
2018-01-29T11:49:00.095Z,100953.83
2018-01-29T11:51:32.591Z,100954.45
2018-01-29T11:54:05.113Z,100944.30
2018-01-29T11:56:37.598Z,100937.70
2018-01-29T11:59:10.117Z,100938.05
2018-01-29T12:01:42.610Z,100928.38
2018-01-29T12:04:15.115Z,100941.64
2018-01-29T12:06:47.607Z,100934.58
2018-01-29T12:09:20.129Z,100919.03
2018-01-29T12:11:52.630Z,100930.07
2018-01-29T12:14:25.198Z,100924.88
2018-01-29T12:16:57.711Z,100932.02
2018-01-29T12:19:30.244Z,100925.95
2018-01-29T12:22:02.781Z,100912.52
2018-01-29T12:24:35.322Z,100911.36
2018-01-29T12:27:07.816Z,100919.66
2018-01-29T12:29:40.338Z,100913.88
2018-01-29T12:32:12.845Z,100907.13
2018-01-29T12:34:45.347Z,100922.41
2018-01-29T12:37:17.849Z,100896.88
2018-01-29T12:39:50.366Z,100900.05
2018-01-29T12:42:22.876Z,100898.77
2018-01-29T12:44:55.415Z,100898.05
2018-01-29T12:47:27.933Z,100915.53
2018-01-29T12:50:00.416Z,100891.10
2018-01-29T12:52:32.935Z,100886.91
2018-01-29T12:55:05.428Z,100880.74
2018-01-29T12:57:37.942Z,100869.34
2018-01-29T13:00:10.440Z,100876.91
2018-01-29T13:02:42.955Z,100865.85
2018-01-29T13:05:15.441Z,100863.87
2018-01-29T13:07:47.961Z,100848.81
2018-01-29T13:10:20.459Z,100853.84
2018-01-29T13:12:52.972Z,100844.92
2018-01-29T13:15:25.467Z,100840.33
2018-01-29T13:17:57.987Z,100843.12
2018-01-29T13:20:30.479Z,100839.11
2018-01-29T13:23:02.988Z,100845.31
2018-01-29T13:25:35.478Z,100832.10
2018-01-29T13:28:07.983Z,100838.02
2018-01-29T13:30:40.485Z,100824.20
2018-01-29T13:33:12.995Z,100832.92
2018-01-29T13:35:45.496Z,100812.69
2018-01-29T13:38:18.978Z,100806.28
2018-01-29T13:40:51.476Z,100811.56
2018-01-29T13:43:23.988Z,100802.45
2018-01-29T13:45:56.587Z,100817.02
2018-01-29T13:48:29.108Z,100807.78
2018-01-29T13:51:01.600Z,100812.43
2018-01-29T13:53:34.109Z,100804.78
2018-01-29T13:56:06.608Z,100804.67
2018-01-29T13:58:39.136Z,100800.44
2018-01-29T14:01:11.688Z,100793.55
2018-01-29T14:03:44.195Z,100798.84
2018-01-29T14:06:16.686Z,100791.41
2018-01-29T14:08:49.208Z,100775.06
2018-01-29T14:11:21.691Z,100771.16
2018-01-29T14:13:54.216Z,100775.52
2018-01-29T14:16:26.715Z,100761.24
2018-01-29T14:18:59.226Z,100763.41
2018-01-29T14:21:31.724Z,100752.92
2018-01-29T14:24:04.438Z,100738.14
2018-01-29T14:26:36.941Z,100751.09
2018-01-29T14:29:09.460Z,100742.20
2018-01-29T14:31:42.035Z,100737.80
2018-01-29T14:34:14.564Z,100755.58
2018-01-29T14:36:47.077Z,100744.14
2018-01-29T14:39:19.594Z,100744.08
2018-01-29T14:41:52.090Z,100733.91
2018-01-29T14:44:24.625Z,100727.72
2018-01-29T14:46:57.129Z,100735.25
2018-01-29T14:49:29.680Z,100740.70
2018-01-29T14:52:02.196Z,100737.61
2018-01-29T14:54:34.706Z,100725.84
2018-01-29T14:57:07.196Z,100728.20
2018-01-29T14:59:39.723Z,100722.93
2018-01-29T15:02:12.225Z,100739.73
2018-01-29T15:04:44.753Z,100721.06
2018-01-29T15:07:17.260Z,100721.84
2018-01-29T15:09:49.776Z,100720.69
2018-01-29T15:12:22.286Z,100714.11
2018-01-29T15:14:54.797Z,100709.39
2018-01-29T15:17:27.292Z,100716.88
2018-01-29T15:19:59.814Z,100707.52
2018-01-29T15:22:32.327Z,100693.61
2018-01-29T15:25:04.845Z,100702.78
2018-01-29T15:27:37.352Z,100700.70
2018-01-29T15:30:09.865Z,100693.84
2018-01-29T15:32:42.372Z,100689.69
2018-01-29T15:35:14.888Z,100693.61
2018-01-29T15:37:47.381Z,100680.63
2018-01-29T15:40:19.899Z,100678.20
2018-01-29T15:42:52.393Z,100687.13
2018-01-29T15:45:24.986Z,100691.30
2018-01-29T15:47:57.495Z,100691.86
2018-01-29T15:50:30.012Z,100691.25
2018-01-29T15:53:02.503Z,100680.92
2018-01-29T15:55:35.033Z,100690.28
2018-01-29T15:58:07.539Z,100686.99
2018-01-29T16:00:40.063Z,100687.28
2018-01-29T16:03:12.563Z,100699.70
2018-01-29T16:05:45.075Z,100689.59
2018-01-29T16:08:17.574Z,100690.61
2018-01-29T16:10:50.095Z,100702.48
2018-01-29T16:13:22.593Z,100697.88
2018-01-29T16:15:55.151Z,100698.55
2018-01-29T16:18:27.655Z,100707.13
2018-01-29T16:21:00.198Z,100701.77
2018-01-29T16:23:32.737Z,100704.42
2018-01-29T16:26:05.261Z,100697.92
2018-01-29T16:28:37.782Z,100688.58
2018-01-29T16:31:10.281Z,100678.94
2018-01-29T16:33:42.806Z,100691.84
2018-01-29T16:36:15.304Z,100684.55
2018-01-29T16:38:47.815Z,100690.36
2018-01-29T16:41:20.311Z,100688.16
2018-01-29T16:43:52.835Z,100685.13
2018-01-29T16:46:25.375Z,100684.56
2018-01-29T16:48:57.896Z,100681.59
2018-01-29T16:51:30.438Z,100675.88
2018-01-29T16:54:02.975Z,100686.48
2018-01-29T16:56:35.485Z,100681.06
2018-01-29T16:59:08.005Z,100683.23
2018-01-29T17:01:40.501Z,100676.35
2018-01-29T17:04:13.013Z,100690.44
2018-01-29T17:06:45.509Z,100696.88
2018-01-29T17:09:18.014Z,100706.98
2018-01-29T17:11:50.548Z,100708.16
2018-01-29T17:14:23.135Z,100704.09
2018-01-29T17:16:58.015Z,100700.64
2018-01-29T17:19:30.533Z,100693.85
2018-01-29T17:22:03.054Z,100710.44
2018-01-29T17:24:35.577Z,100716.30
2018-01-29T17:27:09.087Z,100714.73
2018-01-29T17:29:41.612Z,100718.33
2018-01-29T17:32:14.100Z,100710.61
2018-01-29T17:34:46.622Z,100718.23
2018-01-29T17:37:19.124Z,100707.52
2018-01-29T17:39:51.679Z,100718.39
2018-01-29T17:42:24.183Z,100710.64
2018-01-29T17:44:56.721Z,100716.00
2018-01-29T17:47:29.228Z,100722.69
2018-01-29T17:50:01.743Z,100726.25
2018-01-29T17:52:34.239Z,100732.86
2018-01-29T17:55:06.778Z,100736.17
2018-01-29T17:57:39.286Z,100750.11
2018-01-29T18:00:11.807Z,100742.95
2018-01-29T18:02:44.307Z,100745.34
2018-01-29T18:05:16.824Z,100743.45
2018-01-29T18:07:49.376Z,100753.34
2018-01-29T18:10:21.955Z,100770.02
2018-01-29T18:12:54.462Z,100765.42
2018-01-29T18:15:27.061Z,100768.41
2018-01-29T18:17:59.618Z,100781.12
2018-01-29T18:20:32.135Z,100770.44
2018-01-29T18:23:04.630Z,100766.23
2018-01-29T18:25:37.143Z,100787.50
2018-01-29T18:28:11.146Z,100785.06
2018-01-29T18:30:43.840Z,100786.34
2018-01-29T18:33:16.463Z,100785.58
2018-01-29T18:35:48.996Z,100788.45
2018-01-29T18:38:21.494Z,100796.02
2018-01-29T18:40:54.030Z,100792.09
2018-01-29T18:43:27.465Z,100805.67
2018-01-29T18:45:59.978Z,100812.08
2018-01-29T18:48:32.503Z,100833.08
2018-01-29T18:51:05.019Z,100841.50
2018-01-29T18:53:37.627Z,100842.95
2018-01-29T18:56:10.295Z,100852.55
2018-01-29T18:58:42.818Z,100852.62
2018-01-29T19:01:15.388Z,100851.81
2018-01-29T19:03:47.880Z,100861.87
2018-01-29T19:06:20.421Z,100854.06
2018-01-29T19:08:52.923Z,100870.61
2018-01-29T19:11:25.436Z,100900.55
2018-01-29T19:13:57.966Z,100893.58
2018-01-29T19:16:30.524Z,100910.77
2018-01-29T19:19:03.016Z,100920.77
2018-01-29T19:21:35.528Z,100911.55
2018-01-29T19:24:08.071Z,100920.53
2018-01-29T19:26:40.592Z,100908.84
2018-01-29T19:29:13.077Z,100920.83
2018-01-29T19:31:45.585Z,100919.05
2018-01-29T19:34:18.100Z,100924.30
2018-01-29T19:36:50.629Z,100924.50
2018-01-29T19:39:23.156Z,100928.31
2018-01-29T19:41:55.690Z,100930.05
2018-01-29T19:44:28.194Z,100947.09
2018-01-29T19:47:00.742Z,100949.14
2018-01-29T19:49:33.227Z,100956.44
2018-01-29T19:52:05.889Z,100966.69
2018-01-29T19:54:38.448Z,100959.48
2018-01-29T19:57:10.966Z,100945.12
2018-01-29T19:59:43.590Z,100940.48
2018-01-29T20:02:16.116Z,100948.10
2018-01-29T20:04:48.668Z,100955.88
2018-01-29T20:07:21.238Z,100968.70
2018-01-29T20:09:54.231Z,100977.59
2018-01-29T20:12:26.946Z,100989.50
2018-01-29T20:15:00.451Z,100996.64
2018-01-29T20:17:32.936Z,100993.70
2018-01-29T20:20:05.461Z,100999.19
2018-01-29T20:22:37.953Z,100995.31
2018-01-29T20:25:11.201Z,101000.53
2018-01-29T20:27:43.688Z,101019.66
2018-01-29T20:30:16.193Z,101018.77
2018-01-29T20:32:48.694Z,101027.70
2018-01-29T20:35:21.235Z,101034.90
2018-01-29T20:37:53.711Z,101031.88
2018-01-29T20:40:26.346Z,101035.96
2018-01-29T20:42:58.840Z,101036.60
2018-01-29T20:45:31.428Z,101053.65
2018-01-29T20:48:03.999Z,101059.27
2018-01-29T20:50:36.818Z,101070.33
2018-01-29T20:53:09.382Z,101077.60
2018-01-29T20:55:42.348Z,101078.03
2018-01-29T20:58:14.855Z,101081.91
2018-01-29T21:00:47.392Z,101089.17
2018-01-29T21:03:19.884Z,101092.18
2018-01-29T21:05:52.410Z,101101.47
2018-01-29T21:08:34.420Z,101105.28
2018-01-29T21:11:06.919Z,101116.34
2018-01-29T21:13:39.410Z,101124.00
2018-01-29T21:16:11.933Z,101127.80
2018-01-29T21:18:44.765Z,101128.67
2018-01-29T21:21:17.274Z,101146.09
2018-01-29T21:23:49.764Z,101141.86
2018-01-29T21:26:22.268Z,101156.73
2018-01-29T21:28:54.781Z,101157.08
2018-01-29T21:31:27.379Z,101157.17
2018-01-29T21:33:59.941Z,101157.20
2018-01-29T21:36:32.472Z,101163.53
2018-01-29T21:39:05.024Z,101164.80
2018-01-29T21:41:37.547Z,101176.25
2018-01-29T21:44:10.032Z,101186.91
2018-01-29T21:46:42.660Z,101180.09
2018-01-29T21:49:15.153Z,101189.02
2018-01-29T21:51:47.667Z,101198.77
2018-01-29T21:54:20.158Z,101211.10
2018-01-29T21:56:52.725Z,101207.69
2018-01-29T21:59:25.224Z,101215.33
2018-01-29T22:01:57.839Z,101221.27
2018-01-29T22:04:30.355Z,101221.28
2018-01-29T22:07:02.927Z,101222.12
2018-01-29T22:09:35.422Z,101232.72
2018-01-29T22:12:07.932Z,101246.31
2018-01-29T22:14:41.373Z,101250.98
2018-01-29T22:17:13.911Z,101242.46
2018-01-29T22:19:48.945Z,101252.64
2018-01-29T22:22:21.471Z,101265.39
2018-01-29T22:24:54.078Z,101259.47
2018-01-29T22:27:27.781Z,101269.66
2018-01-29T22:30:00.292Z,101269.20
2018-01-29T22:32:32.805Z,101280.27
2018-01-29T22:35:05.295Z,101281.12
2018-01-29T22:37:37.801Z,101283.64
2018-01-29T22:40:10.574Z,101276.02
2018-01-29T22:42:43.086Z,101281.12
2018-01-29T22:45:15.768Z,101280.70
2018-01-29T22:47:49.192Z,101291.31
2018-01-29T22:50:22.024Z,101300.64
2018-01-29T22:52:54.541Z,101321.44
2018-01-29T22:55:30.628Z,101309.98
2018-01-29T22:58:03.294Z,101324.39
2018-01-29T23:00:35.782Z,101323.12
2018-01-29T23:03:08.315Z,101331.19
2018-01-29T23:05:41.156Z,101331.58
2018-01-29T23:08:13.663Z,101329.50
2018-01-29T23:10:46.173Z,101337.12
2018-01-29T23:13:18.661Z,101342.64
2018-01-29T23:15:51.172Z,101342.63
2018-01-29T23:18:23.706Z,101345.19
2018-01-29T23:20:56.282Z,101345.18
2018-01-29T23:23:28.795Z,101361.33
2018-01-29T23:26:01.300Z,101357.92
2018-01-29T23:28:33.795Z,101351.13
2018-01-29T23:31:06.307Z,101371.89
2018-01-29T23:33:38.802Z,101379.16
2018-01-29T23:36:11.362Z,101380.84
2018-01-29T23:38:43.851Z,101382.10
2018-01-29T23:41:16.427Z,101379.58
2018-01-29T23:43:48.931Z,101383.38
2018-01-29T23:46:21.452Z,101385.52
2018-01-29T23:48:53.938Z,101386.78
2018-01-29T23:51:26.453Z,101399.95
2018-01-29T23:53:59.001Z,101405.90
2018-01-29T23:56:36.558Z,101405.88
2018-01-29T23:59:09.047Z,101416.91
